createdAt,value
2018-01-03T00:00:12.740Z,712.31
2018-01-03T00:01:13.218Z,712.20
2018-01-03T00:02:13.697Z,712.52
2018-01-03T00:03:14.152Z,712.38
2018-01-03T00:04:14.618Z,712.39
2018-01-03T00:05:15.087Z,712.42
2018-01-03T00:06:15.558Z,712.30
2018-01-03T00:07:16.009Z,712.56
2018-01-03T00:08:16.490Z,712.58
2018-01-03T00:09:16.959Z,712.58
2018-01-03T00:10:17.427Z,712.55
2018-01-03T00:11:17.879Z,712.59
2018-01-03T00:13:18.855Z,712.50
2018-01-03T00:14:19.294Z,712.42
2018-01-03T00:15:19.761Z,712.72
2018-01-03T00:16:20.230Z,712.68
2018-01-03T00:18:21.152Z,712.11
2018-01-03T00:19:21.630Z,712.66
2018-01-03T00:20:22.100Z,712.60
2018-01-03T00:22:23.035Z,712.60
2018-01-03T00:24:23.971Z,712.31
2018-01-03T00:25:24.439Z,712.45
2018-01-03T00:26:24.908Z,712.69
2018-01-03T00:27:25.374Z,712.53
2018-01-03T00:28:25.843Z,712.48
2018-01-03T00:29:26.296Z,711.87
2018-01-03T00:30:26.778Z,712.43
2018-01-03T00:31:27.242Z,712.44
2018-01-03T00:32:27.712Z,712.46
2018-01-03T00:33:28.178Z,712.26
2018-01-03T00:34:28.647Z,712.41
2018-01-03T00:35:29.114Z,712.26
2018-01-03T00:36:29.574Z,712.39
2018-01-03T00:37:30.050Z,712.35
2018-01-03T00:38:30.518Z,712.30
2018-01-03T00:39:30.986Z,712.31
2018-01-03T00:40:31.439Z,712.39
2018-01-03T00:41:31.921Z,712.20
2018-01-03T00:42:32.389Z,712.32
2018-01-03T00:43:32.855Z,712.21
2018-01-03T00:44:33.324Z,712.08
2018-01-03T00:45:33.791Z,712.22
2018-01-03T00:46:34.260Z,712.31
2018-01-03T00:47:34.715Z,712.33
2018-01-03T00:48:35.194Z,712.13
2018-01-03T00:49:35.663Z,712.41
2018-01-03T00:50:36.133Z,712.41
2018-01-03T00:51:36.587Z,712.41
2018-01-03T00:52:37.068Z,712.35
2018-01-03T00:53:37.536Z,712.37
2018-01-03T00:54:38.002Z,712.09
2018-01-03T00:55:38.470Z,712.36
2018-01-03T00:56:38.988Z,712.39
2018-01-03T00:57:39.407Z,712.24
2018-01-03T00:58:39.862Z,712.14
2018-01-03T01:00:40.810Z,712.40
2018-01-03T01:01:41.277Z,712.53
2018-01-03T01:02:41.741Z,712.23
2018-01-03T01:03:42.213Z,712.02
2018-01-03T01:04:42.681Z,712.31
2018-01-03T01:05:43.148Z,712.41
2018-01-03T01:06:43.618Z,712.49
2018-01-03T01:07:44.087Z,712.57
2018-01-03T01:08:44.550Z,712.35
2018-01-03T01:09:45.010Z,712.47
2018-01-03T01:10:45.491Z,712.40
2018-01-03T01:11:45.957Z,712.42
2018-01-03T01:12:46.418Z,712.40
2018-01-03T01:14:47.349Z,712.28
2018-01-03T01:15:47.822Z,712.55
2018-01-03T01:16:48.289Z,712.29
2018-01-03T01:17:48.760Z,712.19
2018-01-03T01:18:49.227Z,712.15
2018-01-03T01:19:49.697Z,712.19
2018-01-03T01:20:50.162Z,712.39
2018-01-03T01:21:50.627Z,712.25
2018-01-03T01:22:51.102Z,712.20
2018-01-03T01:23:51.567Z,712.37
2018-01-03T01:24:52.034Z,712.58
2018-01-03T01:25:52.500Z,712.53
2018-01-03T01:26:52.971Z,712.54
2018-01-03T01:27:53.440Z,712.39
2018-01-03T01:28:53.908Z,712.57
2018-01-03T01:29:54.377Z,712.58
2018-01-03T01:30:54.845Z,712.34
2018-01-03T01:31:55.311Z,712.42
2018-01-03T01:32:55.777Z,712.43
2018-01-03T01:33:56.250Z,712.40
2018-01-03T01:34:56.718Z,712.41
2018-01-03T01:35:57.185Z,712.30
2018-01-03T01:36:57.704Z,712.43
2018-01-03T01:37:58.121Z,712.28
2018-01-03T01:38:58.609Z,712.19
2018-01-03T01:39:59.056Z,712.22
2018-01-03T01:40:59.526Z,712.28
2018-01-03T01:43:00.462Z,712.06
2018-01-03T01:44:00.925Z,712.00
2018-01-03T01:45:01.401Z,712.16
2018-01-03T01:46:01.868Z,712.12
2018-01-03T01:47:02.336Z,712.01
2018-01-03T01:48:02.854Z,712.29
2018-01-03T01:49:03.273Z,711.98
2018-01-03T01:50:03.740Z,712.21
2018-01-03T01:51:04.206Z,711.96
2018-01-03T01:52:04.677Z,711.99
2018-01-03T01:53:05.147Z,712.35
2018-01-03T01:54:05.616Z,711.97
2018-01-03T01:55:06.084Z,711.88
2018-01-03T01:56:06.551Z,711.44
2018-01-03T01:57:07.019Z,711.69
2018-01-03T01:58:07.489Z,712.13
2018-01-03T01:59:07.957Z,712.15
2018-01-03T02:00:08.425Z,711.83
2018-01-03T02:01:08.896Z,711.79
2018-01-03T02:02:09.357Z,711.87
2018-01-03T02:04:10.299Z,712.16
2018-01-03T02:05:10.770Z,711.71
2018-01-03T02:06:11.236Z,712.26
2018-01-03T02:07:11.704Z,711.84
2018-01-03T02:08:12.223Z,711.94
2018-01-03T02:09:12.637Z,711.99
2018-01-03T02:10:13.110Z,712.01
2018-01-03T02:12:14.046Z,711.45
2018-01-03T02:13:14.515Z,711.22
2018-01-03T02:14:14.985Z,711.33
2018-01-03T02:15:15.452Z,711.45
2018-01-03T02:17:16.388Z,711.61
2018-01-03T02:19:17.326Z,711.62
2018-01-03T02:20:17.792Z,711.68
2018-01-03T02:21:18.267Z,711.71
2018-01-03T02:22:18.733Z,711.47
2018-01-03T02:23:19.200Z,711.76
2018-01-03T02:25:20.139Z,711.76
2018-01-03T02:26:20.607Z,711.76
2018-01-03T02:27:21.072Z,711.61
2018-01-03T02:29:22.013Z,711.22
2018-01-03T02:30:22.482Z,711.34
2018-01-03T02:31:22.945Z,711.60
2018-01-03T02:32:23.419Z,711.71
2018-01-03T02:33:23.886Z,711.46
2018-01-03T02:34:24.355Z,711.01
2018-01-03T02:35:24.824Z,711.32
2018-01-03T02:36:25.296Z,710.97
2018-01-03T02:37:25.761Z,711.08
2018-01-03T02:38:26.227Z,710.75
2018-01-03T02:39:26.698Z,710.81
2018-01-03T02:40:27.166Z,710.06
2018-01-03T02:41:27.635Z,710.46
2018-01-03T02:42:28.105Z,711.00
2018-01-03T02:43:28.574Z,710.75
2018-01-03T02:44:29.043Z,710.95
2018-01-03T02:45:29.510Z,711.34
2018-01-03T02:46:29.981Z,710.48
2018-01-03T02:47:30.492Z,711.01
2018-01-03T02:48:30.926Z,711.24
2018-01-03T02:49:31.381Z,710.98
2018-01-03T02:50:31.856Z,711.54
2018-01-03T02:51:32.323Z,710.35
2018-01-03T02:52:32.793Z,710.65
2018-01-03T02:54:33.729Z,711.83
2018-01-03T02:55:34.197Z,711.00
2018-01-03T02:56:34.661Z,710.82
2018-01-03T02:59:36.074Z,710.77
2018-01-03T03:00:36.540Z,710.91
2018-01-03T03:01:37.009Z,710.76
2018-01-03T03:02:37.480Z,711.22
2018-01-03T03:03:37.943Z,710.79
2018-01-03T03:04:38.416Z,710.62
2018-01-03T03:06:39.356Z,710.77
2018-01-03T03:07:39.821Z,710.24
2018-01-03T03:08:40.290Z,710.45
2018-01-03T03:09:52.347Z,710.91
2018-01-03T03:10:41.229Z,711.02
2018-01-03T03:11:41.699Z,710.60
2018-01-03T03:12:42.167Z,710.47
2018-01-03T03:13:42.635Z,710.68
2018-01-03T03:14:43.099Z,710.49
2018-01-03T03:15:43.573Z,710.52
2018-01-03T03:16:44.041Z,710.70
2018-01-03T03:18:44.980Z,709.30
2018-01-03T03:19:45.450Z,710.40
2018-01-03T03:20:45.916Z,711.25
2018-01-03T03:21:46.382Z,710.69
2018-01-03T03:22:46.855Z,709.90
2018-01-03T03:23:47.325Z,710.40
2018-01-03T03:24:47.793Z,709.86
2018-01-03T03:25:48.258Z,710.37
2018-01-03T03:26:48.732Z,710.04
2018-01-03T03:27:49.202Z,710.89
2018-01-03T03:28:49.670Z,710.43
2018-01-03T03:29:50.140Z,710.37
2018-01-03T03:30:50.607Z,710.51
2018-01-03T03:31:51.077Z,710.29
2018-01-03T03:32:51.542Z,710.17
2018-01-03T03:33:52.014Z,710.05
2018-01-03T03:34:52.485Z,709.66
2018-01-03T03:35:52.954Z,710.37
2018-01-03T03:36:53.422Z,710.53
2018-01-03T03:37:53.890Z,710.00
2018-01-03T03:38:54.361Z,710.77
2018-01-03T03:39:54.825Z,710.50
2018-01-03T03:40:55.300Z,710.47
2018-01-03T03:41:55.767Z,709.99
2018-01-03T03:42:56.232Z,710.49
2018-01-03T03:43:56.705Z,710.30
2018-01-03T03:44:57.174Z,709.62
2018-01-03T03:45:57.645Z,710.03
2018-01-03T03:46:58.117Z,709.68
2018-01-03T03:47:58.582Z,710.29
2018-01-03T03:48:59.045Z,710.01
2018-01-03T03:49:59.521Z,710.04
2018-01-03T03:50:59.991Z,709.81
2018-01-03T03:52:00.459Z,708.96
2018-01-03T03:53:00.928Z,710.11
2018-01-03T03:54:01.397Z,710.22
2018-01-03T03:55:01.861Z,710.57
2018-01-03T03:58:03.277Z,709.79
2018-01-03T03:59:03.745Z,709.57
2018-01-03T04:00:04.213Z,709.96
2018-01-03T04:01:04.683Z,709.84
2018-01-03T04:02:05.149Z,709.63
2018-01-03T04:03:05.621Z,709.92
2018-01-03T04:04:06.093Z,710.32
2018-01-03T04:05:06.560Z,709.90
2018-01-03T04:06:07.030Z,709.23
2018-01-03T04:07:07.498Z,709.42
2018-01-03T04:08:07.969Z,710.04
2018-01-03T04:09:08.433Z,709.81
2018-01-03T04:10:08.905Z,709.87
2018-01-03T04:11:09.376Z,710.03
2018-01-03T04:12:09.846Z,709.82
2018-01-03T04:13:10.332Z,708.91
2018-01-03T04:15:11.248Z,710.02
2018-01-03T04:16:11.725Z,709.84
2018-01-03T04:18:12.661Z,709.89
2018-01-03T04:19:13.131Z,709.24
2018-01-03T04:20:13.600Z,708.81
2018-01-03T04:21:14.070Z,709.87
2018-01-03T04:22:14.537Z,709.49
2018-01-03T04:24:15.479Z,709.30
2018-01-03T04:25:15.949Z,709.49
2018-01-03T04:26:16.412Z,709.29
2018-01-03T04:27:16.889Z,709.11
2018-01-03T04:29:17.824Z,709.88
2018-01-03T04:30:18.295Z,708.86
2018-01-03T04:31:18.765Z,708.88
2018-01-03T04:32:19.234Z,709.87
2018-01-03T04:33:19.702Z,708.38
2018-01-03T04:34:20.174Z,709.77
2018-01-03T04:35:20.642Z,709.01
2018-01-03T04:36:21.107Z,709.24
2018-01-03T04:37:21.581Z,709.48
2018-01-03T04:38:22.050Z,708.35
2018-01-03T04:39:22.519Z,709.15
2018-01-03T04:41:23.460Z,708.70
2018-01-03T04:42:23.929Z,708.71
2018-01-03T04:43:24.393Z,709.32
2018-01-03T04:45:25.337Z,709.68
2018-01-03T04:46:25.808Z,709.09
2018-01-03T04:47:26.278Z,709.34
2018-01-03T04:48:26.748Z,709.09
2018-01-03T04:49:27.214Z,709.10
2018-01-03T04:51:28.205Z,709.20
2018-01-03T04:52:28.620Z,709.52
2018-01-03T04:53:29.093Z,709.24
2018-01-03T04:54:29.563Z,709.24
2018-01-03T04:55:30.034Z,709.58
2018-01-03T04:56:30.503Z,709.14
2018-01-03T04:57:30.973Z,709.24
2018-01-03T04:58:31.445Z,708.28
2018-01-03T04:59:31.912Z,708.48
2018-01-03T05:00:32.381Z,709.09
2018-01-03T05:01:32.852Z,709.32
2018-01-03T05:02:33.321Z,709.80
2018-01-03T05:03:33.786Z,709.13
2018-01-03T05:04:34.259Z,708.82
2018-01-03T05:05:34.729Z,709.29
2018-01-03T05:07:35.667Z,708.25
2018-01-03T05:08:36.139Z,708.90
2018-01-03T05:10:37.077Z,709.48
2018-01-03T05:11:37.547Z,709.35
2018-01-03T05:12:38.017Z,708.83
2018-01-03T05:13:38.486Z,708.91
2018-01-03T05:14:38.954Z,708.75
2018-01-03T05:16:39.895Z,709.38
2018-01-03T05:19:53.442Z,709.82
2018-01-03T05:20:41.776Z,708.91
2018-01-03T05:21:42.244Z,709.11
2018-01-03T05:22:42.714Z,709.28
2018-01-03T05:23:43.184Z,708.89
2018-01-03T05:24:43.655Z,709.36
2018-01-03T05:25:44.124Z,709.33
2018-01-03T05:26:44.593Z,709.20
2018-01-03T05:27:45.059Z,708.13
2018-01-03T05:28:45.533Z,708.94
2018-01-03T05:29:46.002Z,708.95
2018-01-03T05:30:46.466Z,708.85
2018-01-03T05:31:46.941Z,709.16
2018-01-03T05:32:47.411Z,709.01
2018-01-03T05:33:47.885Z,709.17
2018-01-03T05:34:48.402Z,708.76
2018-01-03T05:35:48.823Z,708.13
2018-01-03T05:36:49.292Z,708.49
2018-01-03T05:37:49.757Z,709.70
2018-01-03T05:38:50.229Z,708.23
2018-01-03T05:39:50.701Z,708.66
2018-01-03T05:40:51.170Z,709.12
2018-01-03T05:41:51.638Z,708.71
2018-01-03T05:42:52.104Z,708.47
2018-01-03T05:43:52.579Z,708.32
2018-01-03T05:44:53.049Z,708.50
2018-01-03T05:45:53.519Z,708.53
2018-01-03T05:47:54.463Z,708.25
2018-01-03T05:48:54.929Z,708.36
2018-01-03T05:49:55.391Z,708.05
2018-01-03T05:50:55.866Z,708.25
2018-01-03T05:51:56.366Z,708.69
2018-01-03T05:52:56.809Z,708.16
2018-01-03T05:53:57.270Z,708.47
2018-01-03T05:54:57.741Z,708.91
2018-01-03T05:55:58.215Z,708.39
2018-01-03T05:56:58.687Z,708.38
2018-01-03T05:57:59.155Z,708.43
2018-01-03T05:58:59.620Z,708.38
2018-01-03T06:00:00.096Z,708.35
2018-01-03T06:01:00.567Z,708.53
2018-01-03T06:02:01.034Z,708.22
2018-01-03T06:03:01.504Z,708.20
2018-01-03T06:04:01.979Z,708.48
2018-01-03T06:05:02.448Z,708.49
2018-01-03T06:06:02.908Z,708.44
2018-01-03T06:07:03.385Z,708.10
2018-01-03T06:08:03.856Z,708.16
2018-01-03T06:09:04.327Z,707.94
2018-01-03T06:10:04.799Z,708.16
2018-01-03T06:11:05.271Z,707.88
2018-01-03T06:12:05.744Z,707.15
2018-01-03T06:13:06.200Z,707.66
2018-01-03T06:14:06.670Z,708.56
2018-01-03T06:15:07.203Z,708.63
2018-01-03T06:16:07.622Z,707.77
2018-01-03T06:17:08.093Z,708.25
2018-01-03T06:18:08.562Z,707.97
2018-01-03T06:19:09.032Z,708.30
2018-01-03T06:20:09.553Z,707.60
2018-01-03T06:21:09.973Z,707.77
2018-01-03T06:23:10.898Z,708.01
2018-01-03T06:24:11.374Z,707.88
2018-01-03T06:25:11.837Z,707.86
2018-01-03T06:26:12.306Z,707.37
2018-01-03T06:27:12.777Z,707.90
2018-01-03T06:28:13.249Z,707.99
2018-01-03T06:29:13.719Z,707.97
2018-01-03T06:30:14.198Z,707.85
2018-01-03T06:31:14.670Z,707.35
2018-01-03T06:32:15.126Z,707.41
2018-01-03T06:33:15.619Z,707.56
2018-01-03T06:34:16.079Z,707.69
2018-01-03T06:35:16.540Z,707.51
2018-01-03T06:37:17.491Z,707.75
2018-01-03T06:38:17.965Z,707.80
2018-01-03T06:39:18.416Z,707.77
2018-01-03T06:40:18.900Z,707.73
2018-01-03T06:41:19.373Z,707.73
2018-01-03T06:42:19.827Z,706.96
2018-01-03T06:43:20.297Z,707.32
2018-01-03T06:44:20.791Z,707.28
2018-01-03T06:45:21.295Z,707.74
2018-01-03T06:46:21.726Z,707.53
2018-01-03T06:47:22.178Z,707.29
2018-01-03T06:48:22.661Z,707.36
2018-01-03T06:49:23.130Z,706.97
2018-01-03T06:50:23.653Z,707.10
2018-01-03T06:51:24.071Z,707.00
2018-01-03T06:52:24.541Z,707.15
2018-01-03T06:53:25.014Z,707.05
2018-01-03T06:54:25.468Z,707.35
2018-01-03T06:55:25.953Z,707.11
2018-01-03T06:56:26.423Z,707.54
2018-01-03T06:57:26.893Z,706.85
2018-01-03T06:58:27.360Z,707.09
2018-01-03T06:59:27.832Z,707.41
2018-01-03T07:00:28.290Z,707.08
2018-01-03T07:01:28.775Z,707.11
2018-01-03T07:02:29.243Z,707.35
2018-01-03T07:03:29.713Z,707.46
2018-01-03T07:04:30.172Z,707.06
2018-01-03T07:05:30.653Z,706.91
2018-01-03T07:06:31.126Z,706.24
2018-01-03T07:07:31.594Z,707.23
2018-01-03T07:08:32.067Z,706.62
2018-01-03T07:09:32.535Z,707.15
2018-01-03T07:10:33.006Z,707.12
2018-01-03T07:11:33.475Z,707.21
2018-01-03T07:12:33.947Z,707.02
2018-01-03T07:13:34.419Z,707.26
2018-01-03T07:14:34.874Z,707.27
2018-01-03T07:16:35.828Z,707.04
2018-01-03T07:17:36.298Z,706.54
2018-01-03T07:18:36.768Z,706.10
2018-01-03T07:19:37.226Z,706.51
2018-01-03T07:20:37.760Z,706.49
2018-01-03T07:22:38.650Z,705.77
2018-01-03T07:23:39.122Z,706.57
2018-01-03T07:24:39.578Z,706.49
2018-01-03T07:25:40.066Z,705.76
2018-01-03T07:26:40.533Z,706.37
2018-01-03T07:27:41.004Z,706.29
2018-01-03T07:28:41.462Z,705.46
2018-01-03T07:29:41.945Z,705.82
2018-01-03T07:32:43.356Z,706.44
2018-01-03T07:33:43.827Z,706.38
2018-01-03T07:34:44.296Z,706.17
2018-01-03T07:35:44.758Z,705.61
2018-01-03T07:36:45.239Z,705.71
2018-01-03T07:38:46.180Z,705.70
2018-01-03T07:39:46.636Z,706.26
2018-01-03T07:40:47.120Z,706.30
2018-01-03T07:41:47.592Z,706.28
2018-01-03T07:42:48.063Z,706.11
2018-01-03T07:43:48.533Z,706.07
2018-01-03T07:44:49.003Z,706.18
2018-01-03T07:45:49.476Z,705.50
2018-01-03T07:46:49.932Z,705.85
2018-01-03T07:47:50.414Z,705.59
2018-01-03T07:48:50.890Z,705.52
2018-01-03T07:49:51.358Z,705.44
2018-01-03T07:50:51.815Z,704.96
2018-01-03T07:51:52.302Z,705.55
2018-01-03T07:52:52.769Z,705.96
2018-01-03T07:53:53.248Z,705.51
2018-01-03T07:54:53.712Z,705.17
2018-01-03T07:55:54.192Z,704.95
2018-01-03T07:57:55.124Z,704.80
2018-01-03T07:58:55.596Z,705.38
2018-01-03T07:59:56.064Z,705.47
2018-01-03T08:00:56.537Z,705.60
2018-01-03T08:01:56.998Z,705.81
2018-01-03T08:03:57.950Z,705.81
2018-01-03T08:04:58.407Z,705.44
2018-01-03T08:05:58.891Z,705.43
2018-01-03T08:06:59.360Z,705.60
2018-01-03T08:07:59.833Z,705.81
2018-01-03T08:09:00.303Z,705.73
2018-01-03T08:10:00.774Z,705.39
2018-01-03T08:12:01.716Z,705.42
2018-01-03T08:14:02.658Z,705.55
2018-01-03T08:15:03.127Z,705.20
2018-01-03T08:17:04.058Z,705.16
2018-01-03T08:18:04.541Z,704.96
2018-01-03T08:19:05.008Z,705.12
2018-01-03T08:21:05.942Z,705.01
2018-01-03T08:22:06.428Z,705.17
2018-01-03T08:23:06.884Z,704.95
2018-01-03T08:24:07.368Z,705.43
2018-01-03T08:25:07.841Z,705.56
2018-01-03T08:26:08.311Z,705.31
2018-01-03T08:27:08.768Z,705.74
2018-01-03T08:28:09.238Z,705.33
2018-01-03T08:30:10.195Z,705.45
2018-01-03T08:31:10.665Z,705.34
2018-01-03T08:32:11.173Z,705.28
2018-01-03T08:33:11.607Z,705.42
2018-01-03T08:34:12.079Z,705.46
2018-01-03T08:35:12.549Z,705.35
2018-01-03T08:36:13.008Z,705.19
2018-01-03T08:37:13.491Z,704.97
2018-01-03T08:38:13.966Z,705.42
2018-01-03T08:39:14.433Z,705.08
2018-01-03T08:40:14.890Z,705.32
2018-01-03T08:41:15.377Z,705.13
2018-01-03T08:44:16.788Z,704.70
2018-01-03T08:45:17.259Z,705.09
2018-01-03T08:46:17.733Z,704.99
2018-01-03T08:48:18.672Z,703.89
2018-01-03T08:49:19.145Z,704.63
2018-01-03T08:51:20.080Z,704.60
2018-01-03T08:52:20.557Z,704.48
2018-01-03T08:53:21.031Z,704.55
2018-01-03T08:58:23.371Z,704.41
2018-01-03T08:59:23.854Z,703.94
2018-01-03T09:00:24.327Z,703.79
2018-01-03T09:01:24.786Z,704.18
2018-01-03T09:04:26.212Z,704.10
2018-01-03T09:05:26.716Z,703.87
2018-01-03T09:06:27.143Z,703.97
2018-01-03T09:07:27.676Z,703.49
2018-01-03T09:08:28.096Z,703.74
2018-01-03T09:10:29.038Z,703.95
2018-01-03T09:11:29.497Z,704.28
2018-01-03T09:12:29.975Z,704.07
2018-01-03T09:13:30.446Z,703.33
2018-01-03T09:14:30.917Z,704.01
2018-01-03T09:15:31.390Z,703.88
2018-01-03T09:16:31.859Z,703.94
2018-01-03T09:17:32.326Z,703.69
2018-01-03T09:20:33.746Z,703.94
2018-01-03T09:21:34.217Z,703.44
2018-01-03T09:22:34.690Z,703.89
2018-01-03T09:23:35.160Z,703.53
2018-01-03T09:24:35.632Z,703.98
2018-01-03T09:25:36.104Z,704.13
2018-01-03T09:26:36.571Z,703.84
2018-01-03T09:27:37.048Z,704.19
2018-01-03T09:28:37.519Z,704.20
2018-01-03T09:29:37.989Z,703.82
2018-01-03T09:30:38.462Z,703.21
2018-01-03T09:31:38.933Z,703.03
2018-01-03T09:32:39.398Z,704.13
2018-01-03T09:33:39.876Z,703.85
2018-01-03T09:34:40.347Z,703.59
2018-01-03T09:35:40.819Z,704.37
2018-01-03T09:36:41.290Z,704.72
2018-01-03T09:38:42.234Z,703.89
2018-01-03T09:39:42.706Z,703.03
2018-01-03T09:40:43.172Z,703.66
2018-01-03T09:41:43.650Z,703.24
2018-01-03T09:42:44.124Z,703.52
2018-01-03T09:43:44.593Z,703.19
2018-01-03T09:44:45.070Z,703.32
2018-01-03T09:45:45.535Z,702.03
2018-01-03T09:46:46.002Z,703.10
2018-01-03T09:47:58.668Z,701.63
2018-01-03T09:48:46.949Z,701.86
2018-01-03T09:49:47.420Z,703.26
2018-01-03T09:50:47.888Z,702.56
2018-01-03T09:51:48.366Z,702.01
2018-01-03T09:52:48.835Z,702.71
2018-01-03T09:53:49.358Z,703.06
2018-01-03T09:54:49.780Z,703.24
2018-01-03T09:55:50.251Z,703.24
2018-01-03T09:56:50.723Z,702.90
2018-01-03T09:57:51.192Z,702.97
2018-01-03T09:59:52.138Z,703.25
2018-01-03T10:00:52.610Z,703.16
2018-01-03T10:01:53.079Z,703.14
2018-01-03T10:02:53.553Z,702.79
2018-01-03T10:03:54.021Z,703.28
2018-01-03T10:04:54.500Z,702.96
2018-01-03T10:05:54.970Z,702.55
2018-01-03T10:06:55.441Z,702.85
2018-01-03T10:07:55.911Z,702.40
2018-01-03T10:08:56.384Z,702.12
2018-01-03T10:09:56.857Z,702.59
2018-01-03T10:10:57.325Z,702.37
2018-01-03T10:11:57.800Z,702.35
2018-01-03T10:12:58.271Z,702.70
2018-01-03T10:13:58.746Z,702.53
2018-01-03T10:14:59.216Z,703.05
2018-01-03T10:15:59.688Z,702.24
2018-01-03T10:17:00.160Z,702.40
2018-01-03T10:18:00.753Z,702.56
2018-01-03T10:19:01.103Z,702.82
2018-01-03T10:20:01.578Z,703.10
2018-01-03T10:21:02.048Z,703.04
2018-01-03T10:22:02.516Z,703.30
2018-01-03T10:23:02.991Z,703.31
2018-01-03T10:24:03.463Z,703.06
2018-01-03T10:25:03.935Z,703.58
2018-01-03T10:26:04.402Z,704.00
2018-01-03T10:27:04.916Z,703.68
2018-01-03T10:28:05.400Z,703.65
2018-01-03T10:29:05.822Z,703.96
2018-01-03T10:30:06.294Z,703.95
2018-01-03T10:31:06.767Z,703.65
2018-01-03T10:32:07.241Z,703.55
2018-01-03T10:34:08.184Z,703.05
2018-01-03T10:35:08.654Z,702.83
2018-01-03T10:36:09.126Z,703.21
2018-01-03T10:37:09.597Z,703.54
2018-01-03T10:38:10.072Z,703.15
2018-01-03T10:40:11.014Z,703.64
2018-01-03T10:41:11.485Z,703.20
2018-01-03T10:42:11.959Z,703.10
2018-01-03T10:43:23.711Z,703.41
2018-01-03T10:44:12.904Z,703.51
2018-01-03T10:45:13.375Z,703.77
2018-01-03T10:46:13.846Z,703.83
2018-01-03T10:47:14.320Z,703.91
2018-01-03T10:48:14.791Z,704.10
2018-01-03T10:49:15.258Z,703.96
2018-01-03T10:50:15.734Z,703.98
2018-01-03T10:51:16.203Z,703.81
2018-01-03T10:52:16.705Z,703.71
2018-01-03T10:53:17.182Z,703.90
2018-01-03T10:54:17.622Z,703.75
2018-01-03T10:55:18.096Z,703.58
2018-01-03T10:56:18.565Z,703.69
2018-01-03T10:57:19.040Z,704.04
2018-01-03T10:58:19.511Z,703.84
2018-01-03T10:59:19.985Z,704.02
2018-01-03T11:00:20.454Z,704.10
2018-01-03T11:01:20.927Z,704.11
2018-01-03T11:02:21.397Z,704.20
2018-01-03T11:04:22.345Z,704.12
2018-01-03T11:05:22.817Z,704.23
2018-01-03T11:06:23.295Z,704.23
2018-01-03T11:07:23.759Z,704.28
2018-01-03T11:08:24.232Z,704.33
2018-01-03T11:09:24.704Z,704.16
2018-01-03T11:10:25.172Z,703.79
2018-01-03T11:11:25.649Z,703.42
2018-01-03T11:12:26.122Z,703.97
2018-01-03T11:13:26.592Z,703.94
2018-01-03T11:14:27.062Z,703.71
2018-01-03T11:15:27.539Z,703.43
2018-01-03T11:16:28.010Z,702.65
2018-01-03T11:17:28.483Z,703.10
2018-01-03T11:18:28.954Z,703.30
2018-01-03T11:19:29.434Z,703.44
2018-01-03T11:20:29.899Z,702.43
2018-01-03T11:21:30.368Z,703.64
2018-01-03T11:22:30.844Z,702.65
2018-01-03T11:23:31.316Z,701.55
2018-01-03T11:25:32.257Z,703.14
2018-01-03T11:26:32.735Z,701.20
2018-01-03T11:27:33.207Z,700.31
2018-01-03T11:28:33.677Z,701.58
2018-01-03T11:29:34.151Z,701.78
2018-01-03T11:30:34.622Z,703.21
2018-01-03T11:31:35.094Z,702.50
2018-01-03T11:32:35.567Z,701.49
2018-01-03T11:33:36.036Z,701.23
2018-01-03T11:34:36.515Z,702.89
2018-01-03T11:35:36.985Z,701.81
2018-01-03T11:37:37.927Z,701.07
2018-01-03T11:38:38.400Z,701.28
2018-01-03T11:39:38.868Z,702.87
2018-01-03T11:41:39.818Z,702.80
2018-01-03T11:44:41.238Z,702.80
2018-01-03T11:45:41.706Z,703.24
2018-01-03T11:46:42.179Z,703.64
2018-01-03T11:47:42.652Z,702.54
2018-01-03T11:48:43.119Z,703.14
2018-01-03T11:49:43.597Z,703.38
2018-01-03T11:50:44.069Z,703.62
2018-01-03T11:51:44.541Z,703.38
2018-01-03T11:52:45.008Z,703.06
2018-01-03T11:53:45.536Z,702.67
2018-01-03T11:54:45.959Z,702.70
2018-01-03T11:56:46.902Z,703.16
2018-01-03T11:57:47.375Z,703.51
2018-01-03T11:59:48.316Z,703.53
2018-01-03T12:00:48.792Z,704.31
2018-01-03T12:01:49.265Z,702.99
2018-01-03T12:03:50.213Z,704.63
2018-01-03T12:04:50.682Z,705.03
2018-01-03T12:05:51.151Z,704.57
2018-01-03T12:07:52.099Z,704.44
2018-01-03T12:08:52.572Z,703.31
2018-01-03T12:09:53.052Z,703.94
2018-01-03T12:10:53.512Z,704.66
2018-01-03T12:11:53.989Z,704.40
2018-01-03T12:12:54.464Z,704.73
2018-01-03T12:13:54.985Z,704.75
2018-01-03T12:14:55.408Z,704.35
2018-01-03T12:15:55.880Z,704.47
2018-01-03T12:16:56.355Z,704.27
2018-01-03T12:17:56.820Z,704.12
2018-01-03T12:18:57.301Z,703.41
2018-01-03T12:19:57.775Z,703.83
2018-01-03T12:20:58.244Z,705.01
2018-01-03T12:21:58.716Z,704.50
2018-01-03T12:23:59.660Z,704.75
2018-01-03T12:25:00.133Z,705.38
2018-01-03T12:26:00.608Z,705.72
2018-01-03T12:27:01.078Z,703.47
2018-01-03T12:28:01.550Z,704.38
2018-01-03T12:29:02.023Z,704.54
2018-01-03T12:30:02.499Z,704.75
2018-01-03T12:31:02.969Z,705.55
2018-01-03T12:33:03.914Z,704.80
2018-01-03T12:34:04.381Z,704.11
2018-01-03T12:35:04.856Z,704.13
2018-01-03T12:36:05.331Z,704.78
2018-01-03T12:37:05.804Z,703.86
2018-01-03T12:38:06.275Z,705.06
2018-01-03T12:39:06.749Z,704.77
2018-01-03T12:40:07.226Z,705.59
2018-01-03T12:41:07.695Z,706.06
2018-01-03T12:42:08.160Z,705.05
2018-01-03T12:44:09.113Z,705.70
2018-01-03T12:45:09.583Z,705.90
2018-01-03T12:46:10.056Z,705.45
2018-01-03T12:47:10.524Z,705.79
2018-01-03T12:49:11.514Z,705.08
2018-01-03T12:50:11.946Z,704.78
2018-01-03T12:51:12.419Z,704.28
2018-01-03T12:52:12.892Z,704.04
2018-01-03T12:53:13.364Z,704.64
2018-01-03T12:55:14.311Z,704.62
2018-01-03T12:56:14.783Z,704.99
2018-01-03T12:57:15.254Z,704.91
2018-01-03T12:58:15.728Z,705.16
2018-01-03T12:59:16.202Z,705.41
2018-01-03T13:00:16.674Z,705.06
2018-01-03T13:01:17.140Z,705.13
2018-01-03T13:02:17.616Z,705.33
2018-01-03T13:03:18.090Z,705.68
2018-01-03T13:04:18.563Z,705.60
2018-01-03T13:05:19.035Z,705.59
2018-01-03T13:07:19.981Z,705.61
2018-01-03T13:08:20.452Z,705.54
2018-01-03T13:09:20.925Z,705.47
2018-01-03T13:10:21.398Z,705.79
2018-01-03T13:11:21.869Z,705.70
2018-01-03T13:12:22.338Z,705.39
2018-01-03T13:13:22.815Z,705.41
2018-01-03T13:14:23.287Z,705.56
2018-01-03T13:15:23.761Z,705.59
2018-01-03T13:16:24.235Z,705.68
2018-01-03T13:18:25.179Z,705.93
2018-01-03T13:19:25.646Z,705.95
2018-01-03T13:20:26.122Z,705.80
2018-01-03T13:21:26.596Z,706.29
2018-01-03T13:22:27.067Z,705.98
2018-01-03T13:23:27.535Z,706.04
2018-01-03T13:24:28.012Z,705.74
2018-01-03T13:25:28.483Z,705.74
2018-01-03T13:26:28.956Z,705.66
2018-01-03T13:27:29.429Z,706.13
2018-01-03T13:28:29.909Z,705.78
2018-01-03T13:29:30.372Z,705.74
2018-01-03T13:30:30.840Z,706.09
2018-01-03T13:31:31.319Z,706.65
2018-01-03T13:32:31.790Z,705.38
2018-01-03T13:33:32.261Z,705.38
2018-01-03T13:34:32.734Z,705.30
2018-01-03T13:35:33.208Z,705.66
2018-01-03T13:36:33.682Z,705.63
2018-01-03T13:37:34.153Z,706.12
2018-01-03T13:38:34.623Z,706.25
2018-01-03T13:39:35.096Z,706.24
2018-01-03T13:40:35.568Z,706.06
2018-01-03T13:41:36.035Z,706.30
2018-01-03T13:42:36.513Z,705.82
2018-01-03T13:43:36.984Z,706.14
2018-01-03T13:44:37.461Z,705.92
2018-01-03T13:45:37.924Z,705.64
2018-01-03T13:46:38.401Z,706.25
2018-01-03T13:47:38.876Z,706.12
2018-01-03T13:48:39.348Z,705.95
2018-01-03T13:49:39.812Z,705.66
2018-01-03T13:50:40.289Z,706.01
2018-01-03T13:51:40.763Z,706.17
2018-01-03T13:53:41.705Z,705.54
2018-01-03T13:54:42.176Z,705.84
2018-01-03T13:55:42.650Z,705.16
2018-01-03T13:56:43.124Z,706.13